createdAt,value
2022-12-03T00:02:16.205Z,101432.05
2022-12-03T00:04:44.762Z,101430.80
2022-12-03T00:07:27.435Z,101429.77
2022-12-03T00:09:55.853Z,101430.25
2022-12-03T00:12:24.150Z,101430.56
2022-12-03T00:14:52.978Z,101430.77
2022-12-03T00:17:21.337Z,101433.52
2022-12-03T00:19:50.431Z,101430.55
2022-12-03T00:22:18.758Z,101430.77
2022-12-03T00:24:47.220Z,101431.58
2022-12-03T00:27:15.544Z,101427.09
2022-12-03T00:29:43.905Z,101431.55
2022-12-03T00:32:12.556Z,101427.94
2022-12-03T00:34:41.026Z,101423.41
2022-12-03T00:37:09.378Z,101417.69
2022-12-03T00:39:37.650Z,101420.97
2022-12-03T00:42:06.134Z,101423.55
2022-12-03T00:44:34.452Z,101426.71
2022-12-03T00:47:02.975Z,101422.34
2022-12-03T00:49:31.438Z,101422.80
2022-12-03T00:51:59.789Z,101420.21
2022-12-03T00:54:31.867Z,101422.61
2022-12-03T00:57:00.768Z,101421.86
2022-12-03T00:59:29.173Z,101426.22
2022-12-03T01:01:57.460Z,101425.00
2022-12-03T01:04:26.183Z,101428.71
2022-12-03T01:06:54.564Z,101429.81
2022-12-03T01:09:22.965Z,101431.17
2022-12-03T01:11:51.236Z,101429.91
2022-12-03T01:14:20.519Z,101423.09
2022-12-03T01:16:49.221Z,101418.79
2022-12-03T01:19:19.712Z,101423.52
2022-12-03T01:21:50.480Z,101419.44
2022-12-03T01:24:19.745Z,101417.75
2022-12-03T01:26:48.207Z,101423.36
2022-12-03T01:29:16.563Z,101424.98
2022-12-03T01:32:03.544Z,101421.10
2022-12-03T01:34:32.005Z,101426.42
2022-12-03T01:37:00.343Z,101421.85
2022-12-03T01:39:28.581Z,101420.52
2022-12-03T01:41:59.089Z,101418.67
2022-12-03T01:44:33.086Z,101415.91
2022-12-03T01:47:02.816Z,101418.03
2022-12-03T01:50:01.715Z,101417.90
2022-12-03T01:52:34.828Z,101411.40
2022-12-03T01:55:07.923Z,101408.35
2022-12-03T01:57:46.281Z,101402.59
2022-12-03T02:00:17.696Z,101408.13
2022-12-03T02:02:48.589Z,101401.73
2022-12-03T02:05:29.226Z,101397.27
2022-12-03T02:08:34.957Z,101401.14
2022-12-03T02:11:06.243Z,101394.41
2022-12-03T02:13:34.977Z,101396.73
2022-12-03T02:16:04.382Z,101395.48
2022-12-03T02:18:32.981Z,101393.04
2022-12-03T02:21:24.144Z,101392.19
2022-12-03T02:23:52.416Z,101392.80
2022-12-03T02:26:20.969Z,101388.47
2022-12-03T02:28:49.475Z,101390.14
2022-12-03T02:31:17.874Z,101386.43
2022-12-03T02:33:46.221Z,101388.20
2022-12-03T02:36:14.587Z,101394.45
2022-12-03T02:38:45.723Z,101392.02
2022-12-03T02:41:37.578Z,101393.95
2022-12-03T02:44:07.495Z,101392.20
2022-12-03T02:46:36.724Z,101391.66
2022-12-03T02:49:06.469Z,101389.77
2022-12-03T02:51:35.318Z,101388.30
2022-12-03T02:54:04.306Z,101391.05
2022-12-03T02:56:33.566Z,101388.14
2022-12-03T02:59:05.488Z,101393.25
2022-12-03T03:01:35.178Z,101395.44
2022-12-03T03:04:04.766Z,101391.65
2022-12-03T03:06:33.862Z,101392.83
2022-12-03T03:09:21.192Z,101391.77
2022-12-03T03:11:49.566Z,101396.92
2022-12-03T03:14:17.918Z,101395.17
2022-12-03T03:16:46.379Z,101389.25
2022-12-03T03:19:14.817Z,101389.52
2022-12-03T03:21:43.143Z,101386.36
2022-12-03T03:24:11.430Z,101385.46
2022-12-03T03:26:39.802Z,101385.68
2022-12-03T03:29:08.179Z,101383.33
2022-12-03T03:31:37.007Z,101386.02
2022-12-03T03:34:05.631Z,101387.73
2022-12-03T03:36:34.666Z,101384.67
2022-12-03T03:39:05.513Z,101382.03
2022-12-03T03:41:35.062Z,101379.84
2022-12-03T03:44:06.468Z,101378.08
2022-12-03T03:46:36.223Z,101374.77
2022-12-03T03:49:06.200Z,101376.33
2022-12-03T03:51:36.631Z,101377.14
2022-12-03T03:54:06.198Z,101375.85
2022-12-03T03:56:35.026Z,101375.50
2022-12-03T03:59:04.189Z,101377.94
2022-12-03T04:01:33.294Z,101373.27
2022-12-03T04:04:02.318Z,101377.83
2022-12-03T04:06:30.617Z,101377.61
2022-12-03T04:09:00.150Z,101373.77
2022-12-03T04:11:47.009Z,101371.96
2022-12-03T04:14:15.400Z,101370.65
2022-12-03T04:16:43.743Z,101365.31
2022-12-03T04:19:12.191Z,101369.50
2022-12-03T04:21:58.696Z,101369.05
2022-12-03T04:24:27.076Z,101364.63
2022-12-03T04:27:14.181Z,101362.33
2022-12-03T04:29:42.478Z,101358.23
2022-12-03T04:32:29.132Z,101354.75
2022-12-03T04:35:15.985Z,101355.68
2022-12-03T04:37:44.335Z,101352.54
2022-12-03T04:40:31.779Z,101349.65
2022-12-03T04:43:00.119Z,101350.27
2022-12-03T04:45:28.442Z,101350.07
2022-12-03T04:47:56.678Z,101348.34
2022-12-03T04:50:25.081Z,101351.24
2022-12-03T04:52:53.342Z,101353.72
2022-12-03T04:55:21.619Z,101350.13
2022-12-03T04:57:49.885Z,101347.16
2022-12-03T05:00:18.510Z,101343.73
2022-12-03T05:02:46.995Z,101346.84
2022-12-03T05:05:15.646Z,101343.81
2022-12-03T05:08:08.788Z,101345.10
2022-12-03T05:10:37.165Z,101345.41
2022-12-03T05:13:05.487Z,101344.06
2022-12-03T05:15:33.759Z,101343.02
2022-12-03T05:18:02.102Z,101338.42
2022-12-03T05:20:43.853Z,101334.88
2022-12-03T05:23:15.015Z,101337.66
2022-12-03T05:25:43.386Z,101331.92
2022-12-03T05:28:11.760Z,101335.16
2022-12-03T05:30:40.197Z,101335.85
2022-12-03T05:33:08.548Z,101332.56
2022-12-03T05:35:36.818Z,101337.85
2022-12-03T05:38:05.183Z,101333.59
2022-12-03T05:40:33.539Z,101337.98
2022-12-03T05:43:02.222Z,101339.23
2022-12-03T05:45:36.179Z,101341.40
2022-12-03T05:48:05.504Z,101337.41
2022-12-03T05:50:36.538Z,101335.70
2022-12-03T05:53:05.064Z,101338.47
2022-12-03T05:55:33.939Z,101336.06
2022-12-03T05:58:02.307Z,101336.77
2022-12-03T06:00:39.047Z,101324.91
2022-12-03T06:03:11.120Z,101319.08
2022-12-03T06:05:39.635Z,101317.61
2022-12-03T06:08:08.121Z,101320.40
2022-12-03T06:10:36.570Z,101318.50
2022-12-03T06:13:04.880Z,101312.95
2022-12-03T06:15:35.336Z,101314.87
2022-12-03T06:18:07.182Z,101320.44
2022-12-03T06:20:35.505Z,101321.29
2022-12-03T06:23:03.861Z,101320.11
2022-12-03T06:25:32.173Z,101314.93
2022-12-03T06:28:00.591Z,101312.55
2022-12-03T06:30:28.902Z,101318.71
2022-12-03T06:32:57.203Z,101318.70
2022-12-03T06:35:25.572Z,101322.89
2022-12-03T06:37:53.895Z,101326.02
2022-12-03T06:40:22.240Z,101326.16
2022-12-03T06:42:50.527Z,101329.17
2022-12-03T06:45:18.925Z,101327.98
2022-12-03T06:47:47.264Z,101333.14
2022-12-03T06:50:15.672Z,101336.79
2022-12-03T06:52:43.911Z,101339.87
2022-12-03T06:55:12.281Z,101337.71
2022-12-03T06:57:40.562Z,101333.62
2022-12-03T07:00:09.854Z,101332.46
2022-12-03T07:02:38.281Z,101330.52
2022-12-03T07:05:07.890Z,101326.27
2022-12-03T07:07:36.374Z,101328.73
2022-12-03T07:10:05.381Z,101325.20
2022-12-03T07:12:34.490Z,101326.19
2022-12-03T07:15:02.889Z,101322.58
2022-12-03T07:17:31.306Z,101324.41
2022-12-03T07:19:59.654Z,101327.77
2022-12-03T07:22:27.969Z,101325.52
2022-12-03T07:24:56.469Z,101323.82
2022-12-03T07:27:25.142Z,101317.44
2022-12-03T07:29:53.599Z,101314.81
2022-12-03T07:32:35.626Z,101317.44
2022-12-03T07:35:17.671Z,101315.56
2022-12-03T07:38:00.216Z,101314.69
2022-12-03T07:40:27.364Z,101319.77
2022-12-03T07:42:54.422Z,101315.89
2022-12-03T07:45:22.803Z,101319.89
2022-12-03T07:48:04.883Z,101321.05
2022-12-03T07:50:33.230Z,101318.14
2022-12-03T07:53:01.568Z,101314.09
2022-12-03T07:55:29.907Z,101318.08
2022-12-03T07:57:58.335Z,101317.98
2022-12-03T08:00:26.908Z,101319.17
2022-12-03T08:02:55.322Z,101317.69
2022-12-03T08:05:23.916Z,101317.45
2022-12-03T08:07:52.277Z,101319.91
2022-12-03T08:10:20.763Z,101317.91
2022-12-03T08:12:49.122Z,101317.91
2022-12-03T08:15:24.468Z,101319.49
2022-12-03T08:17:59.036Z,101319.69
2022-12-03T08:20:34.605Z,101312.83
2022-12-03T08:23:07.343Z,101320.88
2022-12-03T08:25:35.598Z,101317.05
2022-12-03T08:28:13.684Z,101312.54
2022-12-03T08:30:44.366Z,101316.08
2022-12-03T08:33:28.286Z,101312.88
2022-12-03T08:35:56.760Z,101310.35
2022-12-03T08:38:25.299Z,101319.27
2022-12-03T08:40:55.647Z,101318.99
2022-12-03T08:43:26.124Z,101316.65
2022-12-03T08:45:56.234Z,101317.48
2022-12-03T08:48:33.277Z,101317.45
2022-12-03T08:51:09.514Z,101318.31
2022-12-03T08:53:47.978Z,101312.04
2022-12-03T08:56:28.571Z,101314.11
2022-12-03T08:59:03.277Z,101316.64
2022-12-03T09:01:33.220Z,101320.48
2022-12-03T09:04:31.068Z,101315.84
2022-12-03T09:07:02.484Z,101314.98
2022-12-03T09:09:31.294Z,101315.95
2022-12-03T09:11:59.759Z,101317.07
2022-12-03T09:14:29.282Z,101311.61
2022-12-03T09:16:57.817Z,101312.55
2022-12-03T09:19:27.839Z,101306.30
2022-12-03T09:21:56.210Z,101311.39
2022-12-03T09:24:24.658Z,101309.45
2022-12-03T09:26:53.039Z,101304.31
2022-12-03T09:29:21.410Z,101302.48
2022-12-03T09:32:03.708Z,101301.23
2022-12-03T09:34:30.800Z,101298.48
2022-12-03T09:36:59.197Z,101295.75
2022-12-03T09:39:27.799Z,101291.95
2022-12-03T09:41:56.639Z,101287.94
2022-12-03T09:44:25.056Z,101291.02
2022-12-03T09:46:53.427Z,101285.72
2022-12-03T09:49:22.028Z,101282.77
2022-12-03T09:51:50.370Z,101277.23
2022-12-03T09:54:24.843Z,101275.13
2022-12-03T09:56:55.272Z,101272.92
2022-12-03T09:59:27.683Z,101266.09
2022-12-03T10:01:56.303Z,101272.25
2022-12-03T10:04:25.347Z,101274.97
2022-12-03T10:06:54.406Z,101268.92
2022-12-03T10:09:26.022Z,101266.77
2022-12-03T10:11:56.828Z,101268.84
2022-12-03T10:14:25.495Z,101265.15
2022-12-03T10:16:54.933Z,101266.31
2022-12-03T10:19:27.895Z,101263.63
2022-12-03T10:21:56.224Z,101263.20
2022-12-03T10:24:36.434Z,101259.69
2022-12-03T10:27:29.746Z,101258.70
2022-12-03T10:30:02.985Z,101255.08
2022-12-03T10:32:43.514Z,101253.29
2022-12-03T10:35:15.547Z,101251.85
2022-12-03T10:38:01.679Z,101253.16
2022-12-03T10:40:31.541Z,101250.19
2022-12-03T10:43:23.308Z,101249.60
2022-12-03T10:46:11.993Z,101249.76
2022-12-03T10:48:41.104Z,101245.52
2022-12-03T10:51:22.529Z,101242.61
2022-12-03T10:53:51.288Z,101244.55
2022-12-03T10:56:26.545Z,101243.23
2022-12-03T10:58:55.553Z,101240.46
2022-12-03T11:01:25.857Z,101237.56
2022-12-03T11:04:01.617Z,101233.67
2022-12-03T11:06:32.064Z,101232.35
2022-12-03T11:09:05.430Z,101230.39
2022-12-03T11:11:36.818Z,101230.38
2022-12-03T11:14:05.772Z,101224.73
2022-12-03T11:16:39.928Z,101226.26
2022-12-03T11:19:18.220Z,101227.95
2022-12-03T11:22:05.228Z,101229.36
2022-12-03T11:24:36.082Z,101224.47
2022-12-03T11:27:04.260Z,101227.23
2022-12-03T11:29:52.622Z,101220.23
2022-12-03T11:32:38.608Z,101219.96
2022-12-03T11:35:26.284Z,101211.02
2022-12-03T11:37:54.773Z,101209.71
2022-12-03T11:40:23.059Z,101212.20
2022-12-03T11:42:51.439Z,101204.96
2022-12-03T11:45:28.566Z,101200.12
2022-12-03T11:47:59.595Z,101203.98
2022-12-03T11:50:39.406Z,101202.94
2022-12-03T11:53:17.834Z,101200.95
2022-12-03T11:55:52.505Z,101200.83
2022-12-03T11:58:30.144Z,101202.73
2022-12-03T12:01:01.017Z,101205.17
2022-12-03T12:03:33.950Z,101204.91
2022-12-03T12:06:12.284Z,101200.95
2022-12-03T12:09:04.129Z,101204.61
2022-12-03T12:11:34.797Z,101205.55
2022-12-03T12:14:05.007Z,101203.86
2022-12-03T12:16:52.689Z,101201.73
2022-12-03T12:19:31.571Z,101203.44
2022-12-03T12:22:18.441Z,101201.70
2022-12-03T12:25:27.189Z,101201.92
2022-12-03T12:27:55.839Z,101199.21
2022-12-03T12:30:24.361Z,101199.11
2022-12-03T12:33:02.105Z,101201.76
2022-12-03T12:35:33.072Z,101198.15
2022-12-03T12:38:11.655Z,101195.55
2022-12-03T12:40:44.931Z,101193.56
2022-12-03T12:43:23.812Z,101197.11
2022-12-03T12:45:55.318Z,101196.14
2022-12-03T12:48:27.543Z,101189.31
2022-12-03T12:51:02.138Z,101185.70
2022-12-03T12:53:35.743Z,101182.30
2022-12-03T12:56:27.474Z,101180.54
2022-12-03T12:58:59.657Z,101172.65
2022-12-03T13:01:32.487Z,101172.16
2022-12-03T13:04:00.890Z,101174.48
2022-12-03T13:06:31.482Z,101167.15
2022-12-03T13:09:01.451Z,101166.80
2022-12-03T13:11:37.450Z,101169.02
2022-12-03T13:14:24.727Z,101167.16
2022-12-03T13:16:56.400Z,101167.88
2022-12-03T13:19:27.597Z,101166.36
2022-12-03T13:21:58.397Z,101166.74
2022-12-03T13:24:36.858Z,101169.84
2022-12-03T13:27:14.101Z,101175.25
2022-12-03T13:29:42.850Z,101173.48
2022-12-03T13:32:19.295Z,101175.21
2022-12-03T13:34:50.716Z,101178.59
2022-12-03T13:37:28.527Z,101176.11
2022-12-03T13:39:58.046Z,101175.73
2022-12-03T13:42:39.939Z,101170.08
2022-12-03T13:45:14.148Z,101169.63
2022-12-03T13:47:43.730Z,101169.77
2022-12-03T13:50:45.171Z,101166.41
2022-12-03T13:53:13.406Z,101172.64
2022-12-03T13:55:47.369Z,101173.03
2022-12-03T13:58:15.599Z,101173.13
2022-12-03T14:00:44.129Z,101172.72
2022-12-03T14:03:12.652Z,101175.25
2022-12-03T14:05:41.009Z,101175.44
2022-12-03T14:08:09.481Z,101175.27
2022-12-03T14:10:37.881Z,101172.59
2022-12-03T14:13:06.215Z,101171.11
2022-12-03T14:15:34.521Z,101170.55
2022-12-03T14:18:02.935Z,101169.50
2022-12-03T14:20:31.276Z,101169.28
2022-12-03T14:22:59.811Z,101169.83
2022-12-03T14:25:28.531Z,101166.17
2022-12-03T14:27:56.899Z,101163.08
2022-12-03T14:30:25.202Z,101159.09
2022-12-03T14:32:53.533Z,101159.77
2022-12-03T14:35:21.891Z,101158.40
2022-12-03T14:37:50.258Z,101154.14
2022-12-03T14:40:21.740Z,101152.89
2022-12-03T14:42:50.743Z,101159.06
2022-12-03T14:45:20.569Z,101161.23
2022-12-03T14:47:48.925Z,101167.48
2022-12-03T14:50:18.676Z,101163.17
2022-12-03T14:52:47.217Z,101158.27
2022-12-03T14:55:15.518Z,101155.36
2022-12-03T14:57:44.029Z,101158.59
2022-12-03T15:00:13.129Z,101156.23
2022-12-03T15:02:41.619Z,101156.54
2022-12-03T15:05:10.484Z,101148.33
2022-12-03T15:07:40.911Z,101146.80
2022-12-03T15:10:09.693Z,101146.95
2022-12-03T15:12:38.038Z,101154.31
2022-12-03T15:15:07.015Z,101152.48
2022-12-03T15:17:35.397Z,101157.29
2022-12-03T15:20:04.426Z,101159.51
2022-12-03T15:22:32.831Z,101158.96
2022-12-03T15:25:02.955Z,101159.46
2022-12-03T15:27:31.449Z,101157.42
2022-12-03T15:29:59.813Z,101162.42
2022-12-03T15:32:28.588Z,101161.98
2022-12-03T15:34:57.833Z,101160.30
2022-12-03T15:37:28.325Z,101164.04
2022-12-03T15:39:57.386Z,101167.07
2022-12-03T15:42:26.147Z,101165.50
2022-12-03T15:44:54.492Z,101166.68
2022-12-03T15:47:24.030Z,101168.69
2022-12-03T15:49:53.459Z,101169.68
2022-12-03T15:52:22.281Z,101172.42
2022-12-03T15:54:50.750Z,101164.27
2022-12-03T15:57:19.409Z,101160.08
2022-12-03T15:59:47.725Z,101164.36
2022-12-03T16:02:16.686Z,101161.61
2022-12-03T16:04:45.980Z,101166.02
2022-12-03T16:07:17.663Z,101161.24
2022-12-03T16:09:47.071Z,101158.68
2022-12-03T16:12:16.007Z,101156.13
2022-12-03T16:14:44.664Z,101159.86
2022-12-03T16:17:14.093Z,101167.52
2022-12-03T16:19:43.198Z,101163.73
2022-12-03T16:22:12.959Z,101164.29
2022-12-03T16:24:41.339Z,101159.37
2022-12-03T16:27:09.769Z,101168.16
2022-12-03T16:29:39.093Z,101168.04
2022-12-03T16:32:10.286Z,101167.05
2022-12-03T16:34:38.948Z,101173.00
2022-12-03T16:37:09.061Z,101170.92
2022-12-03T16:39:38.039Z,101161.56
2022-12-03T16:42:10.418Z,101163.66
2022-12-03T16:45:04.834Z,101164.84
2022-12-03T16:47:34.767Z,101168.79
2022-12-03T16:50:09.128Z,101165.26
2022-12-03T16:52:38.689Z,101164.13
2022-12-03T16:55:07.863Z,101166.47
2022-12-03T16:57:37.275Z,101172.91
2022-12-03T17:00:07.021Z,101173.40
2022-12-03T17:02:35.677Z,101169.80
2022-12-03T17:05:05.271Z,101177.48
2022-12-03T17:07:33.711Z,101166.23
2022-12-03T17:10:02.710Z,101161.11
2022-12-03T17:13:00.768Z,101157.38
2022-12-03T17:15:19.462Z,101160.16
2022-12-03T17:17:47.875Z,101163.42
2022-12-03T17:20:17.751Z,101162.59
2022-12-03T17:22:46.099Z,101164.09
2022-12-03T17:25:14.438Z,101156.14
2022-12-03T17:27:45.578Z,101158.73
2022-12-03T17:30:15.047Z,101162.54
2022-12-03T17:32:43.746Z,101155.88
2022-12-03T17:35:12.504Z,101152.80
2022-12-03T17:37:40.893Z,101155.69
2022-12-03T17:40:13.849Z,101159.61
2022-12-03T17:42:42.263Z,101161.49
2022-12-03T17:45:11.249Z,101161.17
2022-12-03T17:47:40.364Z,101158.14
2022-12-03T17:50:09.214Z,101155.77
2022-12-03T17:52:37.503Z,101162.41
2022-12-03T17:55:12.889Z,101161.02
2022-12-03T17:57:45.928Z,101157.23
2022-12-03T18:00:14.536Z,101161.70
2022-12-03T18:02:43.403Z,101160.19
2022-12-03T18:05:12.234Z,101154.23
2022-12-03T18:07:40.851Z,101149.64
2022-12-03T18:10:09.818Z,101152.52
2022-12-03T18:12:38.604Z,101149.48
2022-12-03T18:15:08.268Z,101146.24
2022-12-03T18:17:37.460Z,101148.98
2022-12-03T18:20:08.103Z,101144.70
2022-12-03T18:22:37.007Z,101149.30
2022-12-03T18:25:06.920Z,101140.79
2022-12-03T18:27:36.091Z,101143.17
2022-12-03T18:30:05.619Z,101141.98
2022-12-03T18:32:34.479Z,101138.56
2022-12-03T18:35:04.702Z,101141.13
2022-12-03T18:37:34.572Z,101130.11
2022-12-03T18:40:13.139Z,101126.27
2022-12-03T18:42:42.369Z,101127.27
2022-12-03T18:45:13.258Z,101133.59
2022-12-03T18:47:42.779Z,101131.38
2022-12-03T18:50:13.588Z,101137.16
2022-12-03T18:52:42.764Z,101131.38
2022-12-03T18:55:18.584Z,101130.52
2022-12-03T18:57:49.225Z,101127.47
2022-12-03T19:00:19.149Z,101130.55
2022-12-03T19:03:03.755Z,101134.67
2022-12-03T19:05:35.745Z,101138.40
2022-12-03T19:08:13.270Z,101140.45
2022-12-03T19:10:46.603Z,101142.17
2022-12-03T19:13:17.070Z,101145.56
2022-12-03T19:15:47.340Z,101144.20
2022-12-03T19:18:16.414Z,101141.63
2022-12-03T19:20:46.037Z,101146.91
2022-12-03T19:23:15.012Z,101145.02
2022-12-03T19:25:55.777Z,101146.39
2022-12-03T19:28:27.296Z,101147.92
2022-12-03T19:31:17.978Z,101152.03
2022-12-03T19:33:47.930Z,101157.67
2022-12-03T19:36:24.867Z,101156.67
2022-12-03T19:39:01.469Z,101149.23
2022-12-03T19:41:34.270Z,101147.56
2022-12-03T19:44:09.268Z,101147.92
2022-12-03T19:46:40.181Z,101149.29
2022-12-03T19:49:12.991Z,101148.27
2022-12-03T19:51:44.600Z,101149.50
2022-12-03T19:54:17.165Z,101154.30
2022-12-03T19:56:50.559Z,101149.75
2022-12-03T19:59:22.421Z,101150.95
2022-12-03T20:01:53.858Z,101145.02
2022-12-03T20:04:23.190Z,101148.63
2022-12-03T20:06:52.282Z,101146.94
2022-12-03T20:09:22.862Z,101148.36
2022-12-03T20:12:01.571Z,101151.65
2022-12-03T20:14:34.661Z,101147.58
2022-12-03T20:17:04.444Z,101153.75
2022-12-03T20:19:33.928Z,101151.04
2022-12-03T20:22:03.219Z,101152.40
2022-12-03T20:24:32.967Z,101151.04
2022-12-03T20:27:02.337Z,101154.97
2022-12-03T20:29:32.880Z,101152.09
2022-12-03T20:32:06.201Z,101150.58
2022-12-03T20:34:36.876Z,101151.45
2022-12-03T20:37:07.136Z,101149.80
2022-12-03T20:39:36.798Z,101148.31
2022-12-03T20:42:06.299Z,101137.94
2022-12-03T20:44:40.274Z,101140.66
2022-12-03T20:47:09.375Z,101140.48
2022-12-03T20:49:39.935Z,101142.04
2022-12-03T20:52:10.255Z,101139.98
2022-12-03T20:54:39.398Z,101142.41
2022-12-03T20:57:08.244Z,101135.42
2022-12-03T20:59:37.919Z,101134.92
2022-12-03T21:02:07.192Z,101137.34
2022-12-03T21:04:36.707Z,101138.05
2022-12-03T21:07:05.485Z,101138.88
2022-12-03T21:09:34.444Z,101133.09
2022-12-03T21:12:02.926Z,101135.86
2022-12-03T21:14:31.296Z,101137.27
2022-12-03T21:17:08.433Z,101142.29
2022-12-03T21:19:38.724Z,101136.70
2022-12-03T21:22:08.765Z,101135.35
2022-12-03T21:24:44.456Z,101134.14
2022-12-03T21:27:21.191Z,101135.15
2022-12-03T21:29:51.837Z,101136.16
2022-12-03T21:32:20.910Z,101132.92
2022-12-03T21:34:49.179Z,101133.27
2022-12-03T21:37:17.962Z,101133.80
2022-12-03T21:39:46.332Z,101129.59
2022-12-03T21:42:36.106Z,101126.34
2022-12-03T21:45:04.056Z,101123.27
2022-12-03T21:47:37.314Z,101122.26
2022-12-03T21:50:09.751Z,101116.96
2022-12-03T21:52:38.293Z,101113.41
2022-12-03T21:55:06.988Z,101113.40
2022-12-03T21:57:36.927Z,101113.06
2022-12-03T22:00:09.745Z,101111.72
2022-12-03T22:02:40.527Z,101106.96
2022-12-03T22:05:11.488Z,101108.15
2022-12-03T22:07:41.007Z,101100.48
2022-12-03T22:10:11.666Z,101098.30
2022-12-03T22:12:42.241Z,101098.84
2022-12-03T22:15:16.724Z,101091.16
2022-12-03T22:17:47.888Z,101086.05
2022-12-03T22:20:16.526Z,101084.05
2022-12-03T22:22:45.198Z,101086.95
2022-12-03T22:25:14.144Z,101091.04
2022-12-03T22:27:42.568Z,101092.92
2022-12-03T22:30:11.225Z,101087.14
2022-12-03T22:32:39.699Z,101088.36
2022-12-03T22:35:08.525Z,101086.70
2022-12-03T22:37:37.042Z,101086.21
2022-12-03T22:40:06.601Z,101083.34
2022-12-03T22:42:34.984Z,101080.28
2022-12-03T22:45:04.134Z,101086.40
2022-12-03T22:47:32.466Z,101088.11
2022-12-03T22:50:00.783Z,101092.71
2022-12-03T22:52:30.344Z,101086.89
2022-12-03T22:54:58.648Z,101085.91
2022-12-03T22:57:27.032Z,101085.27
2022-12-03T22:59:55.613Z,101085.82
2022-12-03T23:02:24.313Z,101091.28
2022-12-03T23:04:56.032Z,101087.34
2022-12-03T23:07:24.320Z,101084.29
2022-12-03T23:09:52.973Z,101086.86
